Lake City, Texas
Current Conditions -  °F | °C
As of 1:15 PM on Tuesday 21 Oct 2014 (Local Time) from KRBO Reporting Station
Moderate Rain Moderate Rain  
Wind Chill: 83°   Ceiling: Unl
Heat Index: 88°   Visibility: 10mi
Dew Point: 72°   Wind: 13mph
Humidity: 69%   Direction: 80°E
Pressure: 29.99"   Gusts: NA
Location:  28.0654°N, 97.7489°W
Report Text: KRBO 211815Z AUTO 08011KT 10SM RA SCT024 SCT033 28/22 A2999 RMK AO2 T02820220
Loading
Personal Weather Stations






























Interactive Weather Map
Tropical Storm Tracking
New forecast layout! Learn more

10-Day Weather Forecast

Advertisements
Track Severe Weather on mobile